Time;durP1;ratioP1;P1;durP2;ratioP2;P2;SDS_P1;SDS_P2;PMS_P1;PMS_P2;Temp;Humidity;BMP_temperature;BMP_pressure;BME280_temperature;BME280_humidity;BME280_pressure;Samples;Min_cycle;Max_cycle;Signal;HPM_P1;HPM_P2
2022/04/13 00:01:02;;;;;;;4.47;4.07;;;;;;;7.71;46.56;95156.63;5012742;28;20231;-64
2022/04/13 00:03:27;;;;;;;10.37;4.67;;;;;;;7.71;46.51;95162.69;5015809;28;20237;-64
2022/04/13 00:05:53;;;;;;;7.40;4.30;;;;;;;7.61;46.71;95164.44;5020141;28;20212;-61
2022/04/13 00:08:18;;;;;;;4.60;4.10;;;;;;;7.61;46.38;95153.13;5012832;28;20222;-66
2022/04/13 00:10:44;;;;;;;7.67;4.40;;;;;;;7.59;46.68;95152.44;5012857;28;20795;-65
2022/04/13 00:13:10;;;;;;;7.00;4.43;;;;;;;7.63;46.45;95149.44;5017254;28;20314;-66
2022/04/13 00:15:37;;;;;;;7.70;4.70;;;;;;;7.58;47.18;95163.88;5016322;28;20309;-62
2022/04/13 00:18:07;;;;;;;6.43;4.53;;;;;;;7.35;47.80;95152.72;5017964;28;20242;-61
2022/04/13 00:20:33;;;;;;;7.63;5.03;;;;;;;7.33;48.06;95147.63;5011778;28;20235;-61
2022/04/13 00:22:59;;;;;;;7.43;4.80;;;;;;;7.14;48.77;95150.94;5012836;28;20231;-61
2022/04/13 00:25:25;;;;;;;5.80;4.17;;;;;;;7.10;48.34;95157.38;5020423;28;20330;-61
2022/04/13 00:27:51;;;;;;;5.20;4.40;;;;;;;7.18;48.24;95156.75;5019777;28;20246;-61
2022/04/13 00:30:17;;;;;;;8.53;5.10;;;;;;;7.06;48.23;95162.03;5033727;28;20221;-61
2022/04/13 00:32:42;;;;;;;6.77;4.87;;;;;;;7.06;48.05;95154.19;5036044;28;20213;-62
2022/04/13 00:35:08;;;;;;;6.40;4.37;;;;;;;7.04;48.19;95152.66;5029308;28;20244;-62
2022/04/13 00:37:33;;;;;;;7.13;5.90;;;;;;;7.02;48.78;95160.63;5019713;28;20226;-61
2022/04/13 00:39:59;;;;;;;7.50;5.40;;;;;;;6.89;48.92;95159.97;5019096;28;20229;-62
2022/04/13 00:42:24;;;;;;;6.90;5.73;;;;;;;6.84;49.14;95155.16;5029096;28;20244;-62
2022/04/13 00:44:50;;;;;;;6.43;5.20;;;;;;;6.89;48.98;95159.16;5030692;28;20291;-62
2022/04/13 00:47:18;;;;;;;8.90;5.50;;;;;;;6.79;48.99;95153.84;5034962;28;20346;-62
2022/04/13 00:49:43;;;;;;;8.73;5.47;;;;;;;6.88;49.26;95153.09;5036716;28;20225;-62
2022/04/13 00:52:11;;;;;;;5.90;4.93;;;;;;;6.91;48.98;95158.06;5030119;28;20283;-61
2022/04/13 00:54:41;;;;;;;8.77;5.43;;;;;;;6.92;48.98;95158.88;5032564;28;20225;-61
2022/04/13 00:57:09;;;;;;;9.57;4.77;;;;;;;7.00;48.26;95159.09;5030260;28;20214;-61
2022/04/13 00:59:37;;;;;;;6.00;4.67;;;;;;;7.19;48.26;95161.00;5034538;28;20225;-61
2022/04/13 01:02:05;;;;;;;8.87;5.03;;;;;;;7.14;47.94;95164.03;5031764;28;20225;-61
2022/04/13 01:04:31;;;;;;;7.63;5.17;;;;;;;7.19;47.64;95166.25;5040717;28;20225;-61
2022/04/13 01:06:57;;;;;;;7.63;5.03;;;;;;;7.01;47.98;95164.19;5034041;28;20225;-61
2022/04/13 01:09:25;;;;;;;6.37;5.30;;;;;;;7.00;47.85;95162.56;5036460;28;20259;-60
2022/04/13 01:11:51;;;;;;;7.27;4.90;;;;;;;6.83;48.52;95165.72;5033498;28;20225;-60
2022/04/13 01:14:17;;;;;;;5.33;4.60;;;;;;;6.76;49.19;95162.78;5039232;28;20757;-61
2022/04/13 01:16:42;;;;;;;9.47;5.43;;;;;;;6.66;50.23;95163.66;5035651;28;20417;-60
2022/04/13 01:19:13;;;;;;;8.80;5.37;;;;;;;6.70;49.94;95162.44;5040377;28;20597;-60
2022/04/13 01:21:45;;;;;;;8.87;5.00;;;;;;;6.70;49.98;95168.47;5028670;28;20233;-60
2022/04/13 01:24:12;;;;;;;6.60;4.80;;;;;;;6.63;49.78;95156.88;5036548;28;20201;-60
2022/04/13 01:26:38;;;;;;;5.93;5.07;;;;;;;6.71;49.42;95158.84;5038646;28;20284;-61
2022/04/13 01:29:04;;;;;;;7.00;5.00;;;;;;;6.83;49.23;95157.88;5040166;28;20221;-60
2022/04/13 01:31:30;;;;;;;7.60;4.97;;;;;;;6.75;49.39;95162.91;5033807;28;20258;-60
2022/04/13 01:33:59;;;;;;;10.07;5.00;;;;;;;6.72;49.52;95156.13;5037175;28;20248;-60
2022/04/13 01:36:28;;;;;;;7.43;5.17;;;;;;;6.56;49.92;95164.38;5035759;28;20202;-60
2022/04/13 01:38:54;;;;;;;7.63;4.70;;;;;;;6.49;50.64;95163.19;5041314;28;20228;-61
2022/04/13 01:41:20;;;;;;;7.13;5.10;;;;;;;6.45;51.07;95163.59;5025446;28;20222;-60
2022/04/13 01:43:45;;;;;;;6.53;5.20;;;;;;;6.38;51.35;95160.63;5037132;28;20235;-60
2022/04/13 01:46:11;;;;;;;7.40;5.10;;;;;;;6.41;51.01;95165.59;5027440;28;20290;-60
2022/04/13 01:48:37;;;;;;;7.40;5.20;;;;;;;6.35;50.70;95158.25;5031413;28;20250;-60
2022/04/13 01:51:03;;;;;;;7.27;4.97;;;;;;;6.45;50.78;95156.59;5021791;28;20205;-60
2022/04/13 01:53:28;;;;;;;7.00;5.17;;;;;;;6.28;51.54;95160.56;5017200;28;20254;-60
2022/04/13 01:55:54;;;;;;;7.77;5.10;;;;;;;6.10;52.59;95157.59;5032131;28;20253;-60
2022/04/13 01:58:23;;;;;;;7.10;5.53;;;;;;;6.17;52.23;95152.72;5041957;28;20609;-60
2022/04/13 02:00:53;;;;;;;6.30;4.80;;;;;;;6.35;52.08;95158.25;5043940;28;20222;-60
2022/04/13 02:03:19;;;;;;;5.73;4.60;;;;;;;6.24;51.91;95156.50;5036168;28;20240;-60
2022/04/13 02:05:46;;;;;;;8.47;4.73;;;;;;;6.04;52.47;95152.03;5039792;28;20206;-60
2022/04/13 02:08:11;;;;;;;6.53;5.00;;;;;;;6.05;52.07;95153.69;5036770;28;20295;-61
2022/04/13 02:10:37;;;;;;;10.60;6.23;;;;;;;6.10;52.25;95151.56;5028358;28;20435;-60
2022/04/13 02:13:02;;;;;;;7.67;6.10;;;;;;;6.10;52.03;95146.34;5021296;28;20222;-61
2022/04/13 02:15:28;;;;;;;5.87;5.13;;;;;;;6.25;51.78;95149.50;5022750;28;20210;-60
2022/04/13 02:17:53;;;;;;;7.00;6.30;;;;;;;6.23;51.31;95149.63;5021591;28;20234;-61
2022/04/13 02:20:18;;;;;;;9.00;5.93;;;;;;;6.26;51.34;95152.00;5034248;28;20222;-61
2022/04/13 02:22:47;;;;;;;11.37;6.27;;;;;;;6.04;52.49;95142.44;5032717;28;20253;-60
2022/04/13 02:25:13;;;;;;;10.20;5.80;;;;;;;6.18;51.88;95150.00;5043694;28;20256;-62
2022/04/13 02:27:39;;;;;;;6.30;5.13;;;;;;;6.11;52.43;95148.00;5039050;28;20234;-65
2022/04/13 02:30:06;;;;;;;7.23;5.43;;;;;;;6.05;52.71;95151.09;5037727;28;20205;-65
2022/04/13 02:32:31;;;;;;;10.50;5.80;;;;;;;5.99;52.87;95148.94;5038678;28;20312;-65
2022/04/13 02:34:56;;;;;;;9.03;6.23;;;;;;;5.88;53.73;95142.78;5037965;28;20222;-64
2022/04/13 02:37:22;;;;;;;8.50;6.53;;;;;;;5.99;53.21;95144.56;5037711;28;20228;-66
2022/04/13 02:39:47;;;;;;;9.97;6.33;;;;;;;6.03;52.73;95137.31;5036547;28;20225;-64
2022/04/13 02:42:14;;;;;;;9.03;7.13;;;;;;;5.99;51.94;95139.34;5035445;28;20276;-64
2022/04/13 02:44:44;;;;;;;9.80;6.47;;;;;;;6.02;52.07;95131.28;5033723;28;20220;-65
2022/04/13 02:47:10;;;;;;;10.53;6.53;;;;;;;6.05;51.96;95138.88;5033531;28;20225;-64
2022/04/13 02:49:36;;;;;;;9.80;6.27;;;;;;;5.82;52.92;95134.59;5038286;28;20233;-64
2022/04/13 02:52:03;;;;;;;9.00;6.30;;;;;;;5.64;53.45;95140.28;5034326;28;20268;-64
2022/04/13 02:54:28;;;;;;;8.83;6.20;;;;;;;5.60;54.06;95144.06;5036472;28;20301;-64
2022/04/13 02:56:54;;;;;;;11.57;6.87;;;;;;;5.67;54.20;95137.44;5024222;28;20300;-63
2022/04/13 02:59:19;;;;;;;10.87;6.83;;;;;;;5.88;53.18;95142.78;5021925;28;20233;-65
2022/04/13 03:01:46;;;;;;;11.40;7.00;;;;;;;5.86;52.83;95143.84;5023259;28;20226;-64
2022/04/13 03:04:13;;;;;;;10.63;6.53;;;;;;;5.86;52.79;95143.84;5016186;28;20262;-65
2022/04/13 03:06:38;;;;;;;10.33;6.53;;;;;;;5.70;53.61;95152.03;5027193;28;20225;-64
2022/04/13 03:09:04;;;;;;;8.73;6.20;;;;;;;5.23;55.09;95169.53;5025359;28;20201;-65
2022/04/13 03:11:30;;;;;;;11.33;6.73;;;;;;;5.50;54.78;95156.16;5025808;28;20251;-65
2022/04/13 03:13:56;;;;;;;8.60;6.40;;;;;;;5.66;54.51;95164.47;5021641;28;20214;-65
2022/04/13 03:16:22;;;;;;;16.50;8.43;;;;;;;5.77;54.52;95163.63;5025313;28;20226;-65
2022/04/13 03:18:48;;;;;;;21.23;7.77;;;;;;;5.82;54.20;95161.50;5039082;28;20233;-65
2022/04/13 03:21:13;;;;;;;9.90;7.63;;;;;;;5.76;54.21;95162.00;5038448;28;20267;-65
2022/04/13 03:23:39;;;;;;;15.73;8.57;;;;;;;5.74;53.67;95161.25;5040468;28;20293;-67
2022/04/13 03:26:04;;;;;;;21.50;8.70;;;;;;;5.67;53.97;95171.34;5040919;28;20237;-67
2022/04/13 03:28:29;;;;;;;20.40;10.10;;;;;;;5.62;54.42;95165.66;5040514;28;20261;-67
2022/04/13 03:30:56;;;;;;;25.30;9.63;;;;;;;5.57;54.56;95167.78;5037995;28;20225;-67
2022/04/13 03:33:22;;;;;;;25.63;9.40;;;;;;;5.53;54.50;95174.19;5037605;28;20193;-67
2022/04/13 03:35:47;;;;;;;16.40;8.20;;;;;;;5.44;54.65;95173.09;5036405;28;20257;-67
2022/04/13 03:38:12;;;;;;;18.77;8.97;;;;;;;5.50;54.86;95174.41;5030652;28;20218;-67
2022/04/13 03:40:38;;;;;;;14.33;8.73;;;;;;;5.49;54.89;95172.75;5041198;28;20217;-67
2022/04/13 03:43:03;;;;;;;14.77;8.67;;;;;;;5.41;54.80;95180.34;5041018;28;20244;-67
2022/04/13 03:45:29;;;;;;;14.00;7.73;;;;;;;5.57;54.23;95180.00;5039062;28;20225;-67
2022/04/13 03:47:54;;;;;;;16.07;8.07;;;;;;;5.62;54.32;95178.72;5038453;28;20204;-67
2022/04/13 03:50:20;;;;;;;16.97;7.87;;;;;;;5.66;54.28;95177.50;5041084;28;20316;-67
2022/04/13 03:52:46;;;;;;;14.77;8.37;;;;;;;5.56;54.42;95183.53;5037648;28;20217;-64
2022/04/13 03:55:12;;;;;;;19.13;9.00;;;;;;;5.52;54.57;95180.34;5043359;28;20221;-64
2022/04/13 03:57:38;;;;;;;16.60;9.00;;;;;;;5.56;54.18;95181.78;5036784;28;20233;-64
2022/04/13 04:00:05;;;;;;;18.60;8.77;;;;;;;5.51;54.32;95176.09;5037053;28;20221;-64
2022/04/13 04:02:30;;;;;;;22.07;9.83;;;;;;;5.39;54.90;95192.66;5038082;28;20237;-65
2022/04/13 04:04:56;;;;;;;19.63;8.83;;;;;;;5.41;54.63;95196.00;5035838;28;20226;-66
2022/04/13 04:07:21;;;;;;;13.20;8.30;;;;;;;5.28;54.91;95186.47;5029032;28;20220;-67
2022/04/13 04:09:47;;;;;;;23.17;9.03;;;;;;;5.14;55.88;95196.28;5039091;28;20364;-66
2022/04/13 04:12:12;;;;;;;15.60;9.80;;;;;;;5.22;55.68;95213.00;5038620;28;20201;-65
2022/04/13 04:14:38;;;;;;;17.43;8.20;;;;;;;5.09;55.76;95201.84;5050574;28;20209;-63
2022/04/13 04:17:04;;;;;;;20.50;9.40;;;;;;;5.33;55.19;95208.78;5036685;28;20238;-61
2022/04/13 04:19:29;;;;;;;19.83;10.30;;;;;;;5.40;54.59;95199.53;5041641;28;20305;-62
2022/04/13 04:21:56;;;;;;;21.03;9.33;;;;;;;5.37;54.48;95215.41;5040861;28;20225;-61
2022/04/13 04:24:21;;;;;;;18.17;9.17;;;;;;;5.33;54.78;95214.81;5033658;28;20233;-64
2022/04/13 04:26:47;;;;;;;18.23;9.70;;;;;;;5.38;54.84;95217.09;5032346;28;20289;-65
2022/04/13 04:29:12;;;;;;;17.07;9.13;;;;;;;5.31;55.09;95217.53;5018764;28;20462;-65
2022/04/13 04:31:49;;;;;;;18.37;9.57;;;;;;;5.41;54.84;95224.69;5021678;28;20214;-63
2022/04/13 04:34:16;;;;;;;18.37;9.00;;;;;;;5.54;54.20;95235.84;5023236;28;20229;-63
2022/04/13 04:36:41;;;;;;;14.03;9.40;;;;;;;5.61;53.88;95239.63;5025756;28;20234;-62
2022/04/13 04:39:07;;;;;;;18.27;8.67;;;;;;;5.54;53.97;95241.06;5020554;28;20214;-62
2022/04/13 04:41:33;;;;;;;14.00;7.70;;;;;;;5.56;53.67;95247.00;5019265;28;20257;-63
2022/04/13 04:43:58;;;;;;;19.83;9.40;;;;;;;5.63;53.35;95252.56;5017719;28;20237;-62
2022/04/13 04:46:24;;;;;;;21.53;9.70;;;;;;;5.62;53.34;95248.31;5013824;28;20222;-62
2022/04/13 04:48:49;;;;;;;18.83;9.90;;;;;;;5.69;53.19;95254.72;5012035;28;20230;-62
2022/04/13 04:51:15;;;;;;;23.43;10.93;;;;;;;5.79;52.51;95254.84;5019365;28;20620;-62
2022/04/13 04:53:41;;;;;;;19.73;10.03;;;;;;;5.81;52.48;95260.78;5023905;28;20213;-62
2022/04/13 04:56:07;;;;;;;19.40;9.70;;;;;;;5.83;52.30;95258.91;5021394;28;20234;-62
2022/04/13 04:58:32;;;;;;;16.87;9.63;;;;;;;5.83;52.43;95253.69;5017621;28;20223;-61
2022/04/13 05:00:58;;;;;;;15.07;9.77;;;;;;;5.89;52.53;95263.66;5010680;28;20299;-62
2022/04/13 05:03:23;;;;;;;18.73;10.43;;;;;;;6.07;52.08;95262.28;5012995;28;20214;-62
2022/04/13 05:05:49;;;;;;;18.13;10.50;;;;;;;6.25;51.08;95267.84;5017956;28;20210;-66
2022/04/13 05:08:14;;;;;;;15.90;10.60;;;;;;;6.18;51.19;95266.66;5022477;28;21099;-68
2022/04/13 05:10:42;;;;;;;18.07;9.90;;;;;;;6.17;51.10;95276.28;5023797;28;20237;-62
2022/04/13 05:13:08;;;;;;;17.17;10.00;;;;;;;6.03;51.61;95280.91;5017815;28;20312;-60
2022/04/13 05:15:33;;;;;;;14.67;8.57;;;;;;;6.17;51.36;95278.91;5021315;28;20230;-64
2022/04/13 05:17:59;;;;;;;13.77;9.10;;;;;;;6.16;50.80;95279.00;5027555;28;20244;-59
2022/04/13 05:20:25;;;;;;;14.43;8.30;;;;;;;6.18;50.30;95279.72;5038591;28;20238;-62
2022/04/13 05:22:50;;;;;;;9.93;7.70;;;;;;;6.37;49.20;95282.56;5037555;28;20335;-63
2022/04/13 05:25:16;;;;;;;9.23;7.53;;;;;;;6.34;48.96;95274.16;5038210;28;20228;-63
2022/04/13 05:27:43;;;;;;;17.53;8.90;;;;;;;6.53;49.36;95287.41;5039109;28;20316;-63
2022/04/13 05:30:10;;;;;;;13.03;7.80;;;;;;;6.56;48.57;95278.50;5026143;28;20212;-64
2022/04/13 05:32:50;;;;;;;11.90;7.53;;;;;;;6.66;48.11;95282.06;5029000;28;20210;-63
2022/04/13 05:35:20;;;;;;;10.93;7.97;;;;;;;6.75;48.38;95283.09;5025065;28;20256;-63
2022/04/13 05:37:46;;;;;;;9.93;7.43;;;;;;;6.85;47.89;95284.88;5025816;28;20226;-63
2022/04/13 05:40:12;;;;;;;13.03;8.17;;;;;;;6.96;48.08;95284.00;5029184;28;20320;-63
2022/04/13 05:42:37;;;;;;;15.13;8.20;;;;;;;6.99;47.88;95281.16;5022652;28;20275;-64
2022/04/13 05:45:03;;;;;;;10.63;8.27;;;;;;;7.01;47.91;95278.41;5024945;28;20206;-62
2022/04/13 05:47:29;;;;;;;14.07;8.40;;;;;;;7.12;47.86;95285.41;5022890;28;20227;-64
2022/04/13 05:49:55;;;;;;;11.13;7.83;;;;;;;7.11;47.75;95281.09;5032297;28;20254;-64
2022/04/13 05:52:20;;;;;;;12.03;8.20;;;;;;;7.23;47.35;95280.13;5042398;28;20232;-63
2022/04/13 05:54:46;;;;;;;10.80;7.47;;;;;;;7.20;47.24;95268.13;5046766;28;20220;-65
2022/04/13 05:57:12;;;;;;;12.10;7.73;;;;;;;7.26;47.11;95278.06;5045292;28;20218;-63
2022/04/13 05:59:38;;;;;;;12.03;7.63;;;;;;;7.29;46.95;95275.19;5041653;28;20289;-63
2022/04/13 06:02:04;;;;;;;12.50;8.23;;;;;;;7.33;46.76;95278.41;5029262;28;20325;-63
2022/04/13 06:04:30;;;;;;;13.63;8.67;;;;;;;7.41;46.75;95285.66;5026051;28;20268;-64
2022/04/13 06:06:55;;;;;;;10.33;7.53;;;;;;;7.44;46.21;95286.22;5019940;28;20234;-63
2022/04/13 06:09:22;;;;;;;9.60;7.07;;;;;;;7.48;46.28;95287.63;5024152;28;20360;-69
2022/04/13 06:11:49;;;;;;;12.07;7.37;;;;;;;7.58;46.45;95282.44;5041070;28;20202;-72
2022/04/13 06:14:14;;;;;;;8.40;7.43;;;;;;;7.68;46.22;95287.78;5039931;28;20226;-61
2022/04/13 06:16:39;;;;;;;15.30;8.23;;;;;;;7.67;46.04;95286.94;5039380;28;20221;-61
2022/04/13 06:19:05;;;;;;;12.90;8.10;;;;;;;7.72;45.83;95286.53;5038185;28;20261;-69
2022/04/13 06:21:33;;;;;;;10.13;7.67;;;;;;;7.79;45.87;95285.06;5032292;28;20244;-64
2022/04/13 06:23:58;;;;;;;9.20;7.17;;;;;;;7.94;45.46;95289.03;5041054;28;20199;-64
2022/04/13 06:26:24;;;;;;;9.87;7.07;;;;;;;8.03;44.72;95281.38;5015836;28;20221;-71
2022/04/13 06:28:49;;;;;;;11.53;8.10;;;;;;;8.14;44.04;95295.19;5024827;28;20223;-62
2022/04/13 06:31:15;;;;;;;12.30;7.27;;;;;;;8.19;43.56;95281.72;5018232;28;20230;-64
2022/04/13 06:33:40;;;;;;;10.93;7.60;;;;;;;8.26;44.27;95290.72;5018874;28;20515;-64
2022/04/13 06:36:06;;;;;;;7.73;6.57;;;;;;;8.42;43.25;95287.66;5041409;28;20214;-69
2022/04/13 06:38:32;;;;;;;9.77;6.60;;;;;;;8.48;42.63;95288.91;5042799;28;20244;-62
2022/04/13 06:40:58;;;;;;;9.17;6.80;;;;;;;8.43;43.28;95285.84;5036234;28;20284;-71
2022/04/13 06:43:23;;;;;;;8.05;6.70;;;;;;;8.52;42.96;95285.06;5032588;28;20222;-69
2022/04/13 06:45:48;;;;;;;18.27;7.67;;;;;;;8.47;42.85;95285.44;5035428;28;20230;-64
2022/04/13 06:48:14;;;;;;;12.97;6.87;;;;;;;8.56;42.83;95291.69;5033030;28;20202;-60
2022/04/13 06:50:43;;;;;;;8.47;6.20;;;;;;;8.66;42.62;95295.19;5035497;28;20217;-67
2022/04/13 06:53:08;;;;;;;10.13;6.47;;;;;;;8.79;41.93;95289.69;5039411;28;20232;-63
2022/04/13 06:55:37;;;;;;;7.23;5.80;;;;;;;8.86;41.92;95293.44;5037746;28;20221;-64
2022/04/13 06:58:03;;;;;;;10.07;6.90;;;;;;;8.91;42.58;95295.66;5038070;28;20245;-64
2022/04/13 07:00:28;;;;;;;8.43;6.50;;;;;;;8.97;42.18;95289.88;5034596;28;20249;-63
2022/04/13 07:02:57;;;;;;;9.02;6.57;;;;;;;8.98;42.32;95286.28;5034155;28;20222;-63
2022/04/13 07:05:23;;;;;;;7.10;5.60;;;;;;;8.96;41.84;95290.84;5036557;28;20218;-63
2022/04/13 07:07:49;;;;;;;8.13;5.85;;;;;;;9.04;41.57;95289.19;5033702;28;20229;-70
2022/04/13 07:10:14;;;;;;;9.90;6.13;;;;;;;9.11;40.90;95292.09;5036095;28;20236;-60
2022/04/13 07:12:40;;;;;;;9.70;6.40;;;;;;;9.22;41.35;95286.75;5042224;28;20299;-64
2022/04/13 07:15:06;;;;;;;8.63;6.70;;;;;;;9.28;41.39;95288.81;5034529;28;20209;-63
2022/04/13 07:17:31;;;;;;;13.70;6.43;;;;;;;9.37;40.71;95283.72;5038576;28;20238;-63
2022/04/13 07:19:57;;;;;;;10.20;6.43;;;;;;;9.37;40.55;95291.59;5042267;28;20287;-68
2022/04/13 07:22:23;;;;;;;13.70;6.97;;;;;;;9.38;40.42;95286.22;5031202;28;20214;-62
2022/04/13 07:24:49;;;;;;;11.35;6.03;;;;;;;9.50;40.16;95289.50;5034765;28;20296;-59
2022/04/13 07:27:15;;;;;;;11.53;6.77;;;;;;;9.57;40.66;95290.63;5033328;28;20212;-70
2022/04/13 07:29:41;;;;;;;7.57;6.13;;;;;;;9.66;39.68;95294.22;5040339;28;20235;-67
2022/04/13 07:32:07;;;;;;;8.57;5.68;;;;;;;9.68;39.35;95293.09;5036001;28;20221;-70
2022/04/13 07:34:33;;;;;;;10.63;5.80;;;;;;;9.56;38.77;95288.94;5039269;28;20352;-67
2022/04/13 07:37:00;;;;;;;11.47;5.93;;;;;;;9.64;38.56;95293.50;5034506;28;20256;-60
2022/04/13 07:39:25;;;;;;;8.67;5.87;;;;;;;9.63;38.61;95290.06;5038705;28;20205;-62
2022/04/13 07:41:51;;;;;;;7.40;5.93;;;;;;;9.67;38.33;95286.16;5036588;28;20372;-61
2022/04/13 07:44:18;;;;;;;9.30;6.03;;;;;;;9.71;38.55;95290.19;5040395;28;20233;-67
2022/04/13 07:46:43;;;;;;;8.63;5.60;;;;;;;9.85;37.90;95290.72;5021632;28;20229;-64
2022/04/13 07:49:09;;;;;;;8.82;6.10;;;;;;;9.86;38.19;95282.72;5022799;28;20242;-66
2022/04/13 07:51:35;;;;;;;9.00;5.97;;;;;;;9.90;37.96;95285.88;5017280;28;20234;-64
2022/04/13 07:54:04;;;;;;;10.48;6.43;;;;;;;10.01;38.22;95288.34;5016452;28;20299;-62
2022/04/13 07:56:30;;;;;;;9.63;5.83;;;;;;;10.20;37.93;95290.09;5035596;28;20230;-62
2022/04/13 07:58:55;;;;;;;6.47;5.70;;;;;;;10.28;37.13;95289.41;5030641;28;20226;-69
2022/04/13 08:01:21;;;;;;;9.30;6.33;;;;;;;10.20;37.11;95289.28;5031593;28;20279;-64
2022/04/13 08:03:47;;;;;;;10.13;6.37;;;;;;;10.25;36.39;95292.31;5040026;28;20209;-60
2022/04/13 08:06:12;;;;;;;6.97;5.77;;;;;;;10.21;36.93;95294.41;5041056;28;20221;-62
2022/04/13 08:08:38;;;;;;;9.27;5.82;;;;;;;10.31;37.12;95287.31;5022559;28;20212;-65
2022/04/13 08:11:05;;;;;;;8.50;6.15;;;;;;;10.45;36.48;95287.81;5034213;28;20242;-68
2022/04/13 08:13:31;;;;;;;5.93;5.33;;;;;;;10.41;36.51;95283.84;5037885;28;20253;-67
2022/04/13 08:15:56;;;;;;;9.50;5.50;;;;;;;10.52;36.51;95276.59;5035696;28;20240;-67
2022/04/13 08:18:22;;;;;;;6.80;5.45;;;;;;;10.57;36.28;95290.13;5018644;28;20234;-67
2022/04/13 08:20:49;;;;;;;7.72;5.68;;;;;;;10.54;36.79;95286.97;5044348;28;20221;-61
2022/04/13 08:23:15;;;;;;;8.33;6.17;;;;;;;10.90;34.79;95276.53;5035537;28;20230;-64
2022/04/13 08:25:44;;;;;;;8.50;5.45;;;;;;;10.89;34.45;95281.00;5034895;28;20240;-61
2022/04/13 08:28:10;;;;;;;6.43;5.53;;;;;;;10.83;35.34;95284.22;5034875;28;20233;-61
2022/04/13 08:30:35;;;;;;;7.32;5.45;;;;;;;10.93;35.54;95285.00;5041883;28;20302;-70
2022/04/13 08:33:01;;;;;;;7.95;4.72;;;;;;;11.08;33.68;95277.41;5034129;28;20385;-61
2022/04/13 08:35:26;;;;;;;7.28;5.10;;;;;;;11.03;33.62;95283.09;5035712;28;20222;-66
2022/04/13 08:37:52;;;;;;;7.38;4.88;;;;;;;11.15;33.42;95277.66;5035796;28;20225;-66
2022/04/13 08:40:26;;;;;;;5.25;4.20;;;;;;;11.19;32.00;95279.00;5030077;28;20233;-66
2022/04/13 08:43:07;;;;;;;6.82;4.25;;;;;;;11.14;31.59;95271.53;5020953;28;20234;-65
2022/04/13 08:45:54;;;;;;;6.10;4.55;;;;;;;11.13;32.29;95271.72;5008441;28;20225;-72
2022/04/13 08:48:24;;;;;;;8.45;4.50;;;;;;;11.28;32.00;95270.22;5013495;28;20277;-63
2022/04/13 08:51:02;;;;;;;7.68;4.50;;;;;;;11.43;31.51;95275.78;5032324;28;20292;-70
2022/04/13 08:53:31;;;;;;;7.72;4.45;;;;;;;11.36;30.74;95265.03;5040303;28;20306;-66
2022/04/13 08:55:58;;;;;;;6.28;3.85;;;;;;;11.39;31.61;95254.19;5036374;28;20233;-64
2022/04/13 08:58:43;;;;;;;4.68;3.42;;;;;;;11.81;28.59;95260.63;5033513;28;20245;-67
2022/04/13 09:01:39;;;;;;;4.82;4.18;;;;;;;11.92;28.28;95255.13;5034781;28;20590;-68
2022/04/13 09:04:11;;;;;;;4.20;3.60;;;;;;;12.03;27.98;95267.22;4982145;28;20270;-59
2022/04/13 09:06:42;;;;;;;5.07;3.53;;;;;;;12.05;27.33;95260.00;4984248;28;20325;-70
2022/04/13 09:09:27;;;;;;;5.85;3.75;;;;;;;12.12;25.93;95258.41;4985196;28;20264;-66
2022/04/13 09:11:56;;;;;;;5.97;3.47;;;;;;;12.11;26.01;95252.31;4981170;28;20254;-65
2022/04/13 09:14:22;;;;;;;4.30;3.90;;;;;;;12.20;25.15;95247.91;4965364;28;20297;-60
2022/04/13 09:16:48;;;;;;;5.63;3.25;;;;;;;12.27;25.03;95237.53;4977883;28;20254;-72
2022/04/13 09:19:17;;;;;;;5.18;3.67;;;;;;;12.42;25.83;95235.97;4971010;28;20275;-64
2022/04/13 09:21:44;;;;;;;5.53;4.25;;;;;;;12.50;25.85;95243.94;4981834;28;20559;-66
2022/04/13 09:24:11;;;;;;;5.68;3.85;;;;;;;12.84;25.10;95235.16;4984662;28;20261;-62
2022/04/13 09:26:38;;;;;;;4.30;3.90;;;;;;;12.89;25.07;95237.34;4986262;28;20206;-69
2022/04/13 09:29:03;;;;;;;5.80;3.45;;;;;;;12.95;24.66;95234.88;4982350;28;20269;-64
2022/04/13 09:31:30;;;;;;;4.55;3.40;;;;;;;13.05;22.76;95239.19;5000928;28;20222;-60
2022/04/13 09:33:56;;;;;;;5.45;3.30;;;;;;;13.10;23.05;95234.25;4980946;28;20229;-64
2022/04/13 09:36:21;;;;;;;3.78;3.05;;;;;;;13.16;22.63;95229.16;4979298;28;20293;-60
2022/04/13 09:38:47;;;;;;;3.03;2.75;;;;;;;13.29;22.23;95233.16;4967751;28;20794;-61
2022/04/13 09:41:13;;;;;;;5.32;2.88;;;;;;;13.23;21.42;95230.16;4992369;28;20233;-69
2022/04/13 09:43:39;;;;;;;3.72;2.78;;;;;;;13.27;21.12;95227.22;5026990;28;20213;-64
2022/04/13 09:46:04;;;;;;;5.32;3.63;;;;;;;13.26;21.41;95231.69;5034853;28;20718;-68
2022/04/13 09:48:30;;;;;;;7.43;3.58;;;;;;;13.36;22.41;95232.31;5038848;28;20253;-64
2022/04/13 09:51:00;;;;;;;5.25;3.45;;;;;;;13.49;22.47;95234.50;5037086;28;20212;-65
2022/04/13 09:53:26;;;;;;;3.95;3.35;;;;;;;13.60;22.20;95231.50;5036019;28;20222;-65
2022/04/13 09:55:54;;;;;;;5.03;3.35;;;;;;;13.64;21.70;95218.81;5031965;28;20491;-60
2022/04/13 09:58:30;;;;;;;4.68;3.75;;;;;;;13.66;21.54;95219.47;5036974;28;20231;-66
2022/04/13 10:01:02;;;;;;;6.03;4.07;;;;;;;13.67;21.83;95221.13;5033847;28;20229;-64
2022/04/13 10:03:28;;;;;;;5.47;3.90;;;;;;;13.67;21.90;95214.00;5037209;28;20210;-68
2022/04/13 10:05:58;;;;;;;5.53;3.58;;;;;;;13.62;22.19;95216.31;5035323;28;20284;-62
2022/04/13 10:08:28;;;;;;;5.07;3.20;;;;;;;13.42;22.54;95201.81;5043056;28;20240;-67
2022/04/13 10:10:58;;;;;;;4.05;3.65;;;;;;;13.61;22.72;95203.31;5037108;28;20273;-70
2022/04/13 10:13:31;;;;;;;5.60;3.55;;;;;;;13.79;22.74;95211.03;5036525;28;20309;-65
2022/04/13 10:15:57;;;;;;;4.55;3.13;;;;;;;14.17;23.04;95208.69;5033924;28;20227;-68
2022/04/13 10:18:23;;;;;;;4.43;2.72;;;;;;;14.46;21.80;95202.78;5020266;28;20242;-70
2022/04/13 10:20:52;;;;;;;6.40;3.25;;;;;;;14.67;22.08;95203.06;5017430;28;20206;-66
2022/04/13 10:23:17;;;;;;;4.90;2.88;;;;;;;14.80;20.61;95196.38;5032207;28;20284;-67
2022/04/13 10:25:44;;;;;;;3.35;3.05;;;;;;;14.88;20.45;95194.50;5018375;28;20227;-62
2022/04/13 10:28:12;;;;;;;4.93;3.25;;;;;;;15.05;20.54;95197.91;5023182;28;20237;-61
2022/04/13 10:30:40;;;;;;;3.53;2.90;;;;;;;15.19;20.31;95194.50;5037159;28;20237;-66
2022/04/13 10:33:11;;;;;;;3.60;3.25;;;;;;;15.21;20.75;95189.03;5008553;28;20221;-68
2022/04/13 10:35:39;;;;;;;4.05;3.28;;;;;;;15.24;20.18;95186.03;5037575;28;20244;-64
2022/04/13 10:38:05;;;;;;;3.45;2.80;;;;;;;15.25;21.04;95185.03;5036388;28;20225;-63
2022/04/13 10:40:36;;;;;;;3.70;3.20;;;;;;;15.23;20.40;95187.03;5043200;28;20242;-65
2022/04/13 10:43:04;;;;;;;3.45;3.15;;;;;;;15.34;20.56;95194.59;5037409;28;20318;-66
2022/04/13 10:45:30;;;;;;;4.22;2.90;;;;;;;15.49;20.88;95181.38;5025327;28;20336;-67
2022/04/13 10:48:06;;;;;;;6.93;3.20;;;;;;;15.72;19.90;95180.56;5034530;28;20400;-73
2022/04/13 10:50:47;;;;;;;6.28;3.15;;;;;;;15.75;19.39;95183.66;5041112;28;20217;-65
2022/04/13 10:53:41;;;;;;;3.95;3.10;;;;;;;15.73;19.62;95179.56;5032995;28;20225;-70
2022/04/13 10:56:10;;;;;;;3.25;2.95;;;;;;;15.87;19.50;95163.66;5043070;28;20235;-67
2022/04/13 10:58:41;;;;;;;4.38;3.25;;;;;;;16.10;19.26;95168.09;5034940;28;20240;-63
2022/04/13 11:01:14;;;;;;;3.45;3.10;;;;;;;16.26;18.23;95167.91;5029583;28;20226;-63
2022/04/13 11:03:40;;;;;;;3.75;2.92;;;;;;;15.97;18.27;95173.19;5016436;28;20246;-71
2022/04/13 11:06:08;;;;;;;7.22;3.90;;;;;;;16.11;18.74;95167.06;5024013;28;20202;-64
2022/04/13 11:08:56;;;;;;;4.25;3.00;;;;;;;16.29;17.97;95159.56;5032405;28;20271;-72
2022/04/13 11:11:24;;;;;;;3.72;3.20;;;;;;;16.28;18.58;95155.28;5038191;28;20237;-62
2022/04/13 11:13:51;;;;;;;3.25;2.85;;;;;;;16.60;18.23;95150.59;5041443;28;20214;-73
2022/04/13 11:16:24;;;;;;;5.07;3.10;;;;;;;16.96;18.21;95147.13;5040533;28;20225;-62
2022/04/13 11:19:10;;;;;;;6.70;2.95;;;;;;;17.03;17.73;95157.84;5051304;28;20242;-62
2022/04/13 11:21:54;;;;;;;4.68;2.85;;;;;;;16.91;20.13;95149.53;5020799;28;20240;-61
2022/04/13 11:25:02;;;;;;;3.60;2.85;;;;;;;17.30;18.82;95149.13;5017563;28;20223;-60
2022/04/13 11:27:53;;;;;;;4.57;2.75;;;;;;;17.41;18.73;95150.44;4945660;28;20213;-67
2022/04/13 11:30:19;;;;;;;4.72;2.97;;;;;;;17.44;18.79;95150.06;4969391;28;20208;-71
2022/04/13 11:32:45;;;;;;;4.75;3.00;;;;;;;17.61;18.71;95150.63;4966583;28;20210;-64
2022/04/13 11:35:28;;;;;;;4.70;3.10;;;;;;;17.65;18.45;95146.56;4948592;28;20228;-69
2022/04/13 11:38:05;;;;;;;3.22;2.75;;;;;;;17.86;18.85;95140.44;4945649;28;20232;-68